Terminal Aerodrome Forecast
Issued by NWS Melbourne, FL

Home | Current Version | Previous Version | Text Only | Print | Product List | Glossary On
Versions: 1 2 3 4 5 6 7 8 9 10 11 12 13
383
FTUS42 KMLB 280525
TAFVRB
TAF
KVRB 280525Z 2806/2906 18003KT P6SM SKC
     FM281500 11010KT P6SM SCT040
     FM290200 15003KT P6SM SKC=

USA.gov is the U.S. government's official web portal to all federal, state and local government web resources and services.